Portada
METAR-TAF:

METAR-TAF

Aeroports :

Waterbury-Oxford Airport

Oxford, Connecticut, Estats Units d'Amèrica

latitud: 41-29N, longitud: 073-08W, altitud: 222 m

Observació

L'informe es va fer fa 9 minuts, a les 14:46 UTC
Vent 6 kt del Sud-Oest
Temperatura 16°C
Humitat 100%
Pressió 1014 hPa
Visibilitat: 4.0 km
Cel cobert a una alçada de 200 ft
boirina

METAR: KOXC 241446Z 23006KT 2 1/2SM BR OVC002 16/16 A2993 RMK AO2 RAE34 P0000

Hora: 10:55 (14:55 UTC)


TAF: manca

Observacions i pronòstics meteorològics de més de 4000 aeroports (METAR i TAF).

Les estacions disponibles són els punts grocs i vermells al mapa.

Posi el ratolí al punt desitjat per veure el nom de l'estació.

Feu clic per veure les observacions i els pronòstics meteorològics.

Per canviar el mapa: feu clic els botons verds amb una creu de color negre per apropar; al botó verd amb un guió per allunyar la imatge; o en les fletxes verdes per a mapes adjacents.


METAR-TAF: